Date,TemperatureHighF,TemperatureAvgF,TemperatureLowF,DewpointHighF,DewpointAvgF,DewpointLowF,HumidityHigh,HumidityAvg,HumidityLow,PressureMaxIn,PressureMinIn,WindSpeedMaxMPH,WindSpeedAvgMPH,GustSpeedMaxMPH,PrecipitationSumIn
2013-9-1,76,62,48,-100,-100,-100,0,0,100,0.00,40.00,0,-999,0,0.03
2013-9-2,71,58,49,-100,-100,-100,0,0,100,0.00,40.00,0,-999,0,0.31
2013-9-3,75,61,51,-100,-100,-100,0,0,100,0.00,40.00,0,-999,0,0.00
2013-9-4,79,62,49,-100,-100,-100,0,0,100,0.00,40.00,0,-999,0,0.00
2013-9-5,80,65,51,-100,-100,-100,0,0,100,0.00,40.00,0,-999,0,0.00
2013-9-6,78,63,52,-100,-100,-100,0,0,100,0.00,40.00,0,-999,0,0.00
2013-9-7,78,63,50,-100,-100,-100,0,0,100,0.00,40.00,0,-999,0,0.01
2013-9-8,75,62,52,-100,-100,-100,0,0,100,0.00,40.00,0,-999,0,0.01
2013-9-9,73,58,51,-100,-100,-100,0,0,100,0.00,40.00,0,-999,0,0.03
2013-9-10,63,53,43,-100,-100,-100,0,0,100,0.00,40.00,0,-999,0,0.23
2013-9-11,64,56,51,-100,-100,-100,0,0,100,0.00,40.00,0,-999,0,0.71
2013-9-12,65,54,47,-100,-100,-100,0,0,100,0.00,40.00,0,-999,0,0.16
2013-9-13,61,55,49,-100,-100,-100,0,0,100,0.00,40.00,0,-999,0,0.37
2013-9-14,63,53,48,-100,-100,-100,0,0,100,0.00,40.00,0,-999,0,0.11
2013-9-15,64,53,44,-100,-100,-100,0,0,100,0.00,40.00,0,-999,0,0.05
2013-9-16,64,51,42,-100,-100,-100,0,0,100,0.00,40.00,0,-999,0,0.48
2013-9-17,66,54,43,-100,-100,-100,0,0,100,0.00,40.00,0,-999,0,0.14
2013-9-18,53,51,47,-100,-100,-100,0,0,100,0.00,40.00,0,-999,0,0.38
2013-9-19,63,51,40,-100,-100,-100,0,0,100,0.00,40.00,0,-999,0,0.27
2013-9-20,65,51,40,-100,-100,-100,0,0,100,0.00,40.00,0,-999,0,0.01
2013-9-21,70,54,40,-100,-100,-100,0,0,100,0.00,40.00,0,-999,0,0.00
2013-9-22,57,48,39,-100,-100,-100,0,0,100,0.00,40.00,0,-999,0,0.80
2013-9-23,58,46,37,-100,-100,-100,0,0,100,0.00,40.00,0,-999,0,0.36
2013-9-24,61,46,32,-100,-100,-100,0,0,100,0.00,40.00,0,-999,0,0.00
2013-9-25,66,50,32,-100,-100,-100,0,0,100,0.00,40.00,0,-999,0,0.00
2013-9-26,67,57,47,-100,-100,-100,0,0,100,0.00,40.00,0,-999,0,0.00
2013-9-27,56,45,33,-100,-100,-100,0,0,100,0.00,40.00,0,-999,0,0.01
2013-9-28,56,39,25,-100,-100,-100,0,0,100,0.00,40.00,0,-999,0,0.01
2013-9-29,63,46,29,-100,-100,-100,0,0,100,0.00,40.00,0,-999,0,0.00
2013-9-30,67,52,38,-100,-100,-100,0,0,100,0.00,40.00,0,-999,0,0.00